OMDBOMAA

Guest
Details From OMDB - Dubai Intl
To OMAA - Abu Dhabi Intl
Flight Number -
Tags Generated
Created
Modified
Stats Distance 63 nm / 116 km
Max Altitude 0 ft / 0 m
Waypoints 2
Social Downloads 5
Likes 0
Share VATSIM

Download

Looking for another format? Having issues loading an existing format? Contact us
Advertisement - Login to hide

Notes

Generated

Route

OMDB OMAA

ID Type Via Altitude Latitude Longitude Leg Dist Tot Dist Heading (true) Name
O OMDB APT - 0 ft / 0 m 25.26213˚ 55.34757˚ - 0 nm - -
O OMAA APT - 0 ft / 0 m 24.44439˚ 54.63521˚ 62 nm 62 nm 218° / 218° -

Altitude Profile

Advertisement - Login to hide

OMDB

Details ICAO OMDB (DXB)
Name DUBAI INTL
Region United Arab Emirates
Timezone Asia/Dubai (UTC+4.0)
Stats Elevation 62 ft / 19 m (AMSL)
Location 25.254912° 55.364260°
Runways 2
Magnetic Variation 2.047° E

METAR

OMDB 130900Z 06009KT CAVOK 26/07 Q1017 WS ALL RWY BECMG 34012KT

Decode

TAF

TAF OMDB 130458Z 1306/1412 09008KT 8000 NSC BECMG 1309/1311 36014KT BECMG 1314/1316 07008KT BECMG 1409/1411 34013KT

Decode

Departure Runways

ID Width Length Bearing (true) Bearing (mag) Surface Threshold Offset Overrun Length
12L 197 ft / 60 m 13,124 ft / 4,000 m 121.49° 119.44° Asphalt 1,312 ft / 400 m 395 ft / 120 m
12R 151 ft / 46 m 13,139 ft / 4,005 m 121.48° 119.43° Asphalt 394 ft / 120 m 197 ft / 60 m
30L 151 ft / 46 m 13,139 ft / 4,005 m 301.50° 299.45° Asphalt 2,953 ft / 900 m 197 ft / 60 m
30R 197 ft / 60 m 13,124 ft / 4,000 m 301.51° 299.46° Asphalt 0 ft / 0 m 395 ft / 120 m

OMAA

Details ICAO OMAA (AUH)
Name ABU DHABI INTL
Region United Arab Emirates
Timezone Asia/Dubai (UTC+4.0)
Stats Elevation 88 ft / 27 m (AMSL)
Location 24.433049° 54.651182°
Runways 1
Magnetic Variation 1.979° E

METAR

OMAA 130900Z VRB02KT CAVOK 25/12 Q1017 NOSIG

Decode

TAF

TAF OMAA 130500Z 1306/1412 VRB02KT 8000 FEW035 BECMG 1311/1313 34007KT BECMG 1319/1321 09005KT BECMG 1402/1404 17010KT

Decode

Destination Runways

ID Width Length Bearing (true) Bearing (mag) Surface Threshold Offset Overrun Length
13 148 ft / 45 m 13,461 ft / 4,103 m 127.94° 125.96° Asphalt 0 ft / 0 m 180 ft / 55 m
31 148 ft / 45 m 13,461 ft / 4,103 m 307.95° 305.97° Asphalt 0 ft / 0 m 196 ft / 60 m

Approach Navaids

Runway Type Ident Frequency Range Bearing (true) Bearing (mag) Slope Elevation
13 Localiser IAE 108.90 MHz 18 nm / 33 km 127.95° 125.97° - 110 ft / 34 m (AMSL)
13 Glidescope IAE 108.90 MHz 10 nm / 19 km 127.94° 125.96° 3.00° 120 ft / 37 m (AMSL)
13 DME IAE 108.90 MHz 18 nm / 33 km - - - 98 ft / 30 m (AMSL)
31 Localiser IAW 109.30 MHz 18 nm / 33 km 307.93° 305.95° - 88 ft / 27 m (AMSL)
31 Glidescope IAW 109.30 MHz 10 nm / 19 km 307.94° 305.96° 3.00° 122 ft / 37 m (AMSL)
31 DME IAW 109.30 MHz 18 nm / 33 km - - - 96 ft / 29 m (AMSL)

Popular Alternatives